Time;durP1;ratioP1;P1;durP2;ratioP2;P2;SDS_P1;SDS_P2;PMS_P1;PMS_P2;Temp;Humidity;BMP_temperature;BMP_pressure;BME280_temperature;BME280_humidity;BME280_pressure;Samples;Min_cycle;Max_cycle;Signal;HPM_P1;HPM_P2
2022/09/25 00:00:53;;;;;;;11.23;10.33;;;;;;;13.50;100.00;99894.97;5011523;28;20256;-74
2022/09/25 00:03:20;;;;;;;12.03;11.03;;;;;;;13.51;100.00;99901.88;5010173;28;20207;-74
2022/09/25 00:05:46;;;;;;;12.10;11.10;;;;;;;13.50;100.00;99905.38;5013149;28;20215;-74
2022/09/25 00:08:13;;;;;;;11.80;10.90;;;;;;;13.49;100.00;99901.06;5012986;28;20185;-74
2022/09/25 00:10:43;;;;;;;11.97;10.93;;;;;;;13.49;100.00;99895.84;5010240;28;20206;-74
2022/09/25 00:13:10;;;;;;;11.77;10.83;;;;;;;13.47;100.00;99895.03;5016687;28;20184;-74
2022/09/25 00:15:36;;;;;;;12.07;11.07;;;;;;;13.45;100.00;99897.69;5013130;28;20235;-75
2022/09/25 00:18:01;;;;;;;12.23;11.30;;;;;;;13.45;100.00;99894.22;5011541;28;20769;-74
2022/09/25 00:20:26;;;;;;;12.50;11.50;;;;;;;13.45;100.00;99891.63;5012037;28;20188;-74
2022/09/25 00:22:52;;;;;;;12.27;11.27;;;;;;;13.44;100.00;99892.53;5011627;28;20183;-74
2022/09/25 00:25:19;;;;;;;12.07;11.07;;;;;;;13.41;100.00;99889.09;5014894;28;20259;-74
2022/09/25 00:27:45;;;;;;;12.80;11.77;;;;;;;13.40;100.00;99887.41;5011081;28;20202;-74
2022/09/25 00:30:12;;;;;;;12.03;11.03;;;;;;;13.41;100.00;99890.88;5013736;28;20491;-73
2022/09/25 00:32:39;;;;;;;13.10;12.00;;;;;;;13.40;100.00;99879.59;5015862;28;20180;-74
2022/09/25 00:35:05;;;;;;;13.23;12.10;;;;;;;13.38;100.00;99881.38;5013652;28;20217;-74
2022/09/25 00:37:34;;;;;;;13.00;11.97;;;;;;;13.38;100.00;99886.59;5014551;28;20407;-74
2022/09/25 00:40:00;;;;;;;13.20;12.07;;;;;;;13.35;100.00;99880.59;5015547;28;20190;-74
2022/09/25 00:42:26;;;;;;;12.57;11.57;;;;;;;13.34;100.00;99876.28;5010741;28;20606;-74
2022/09/25 00:45:03;;;;;;;12.57;11.57;;;;;;;13.32;100.00;99881.53;5015316;28;20273;-73
2022/09/25 00:47:44;;;;;;;13.07;11.97;;;;;;;13.29;100.00;99868.63;5014989;28;20210;-74
2022/09/25 00:50:31;;;;;;;12.97;11.77;;;;;;;13.27;100.00;99871.28;5012245;28;20280;-74
2022/09/25 00:53:19;;;;;;;12.87;11.87;;;;;;;13.25;100.00;99872.19;5010854;28;20201;-73
2022/09/25 00:55:45;;;;;;;12.80;11.80;;;;;;;13.24;100.00;99870.47;5009787;28;20251;-74
2022/09/25 00:58:13;;;;;;;13.20;12.13;;;;;;;13.22;100.00;99873.13;5012246;28;20234;-74
2022/09/25 01:00:39;;;;;;;13.30;12.20;;;;;;;13.21;100.00;99871.44;5014008;28;20232;-74
2022/09/25 01:03:06;;;;;;;13.13;12.03;;;;;;;13.19;100.00;99865.41;5010122;28;20654;-74
2022/09/25 01:05:35;;;;;;;13.73;12.57;;;;;;;13.20;100.00;99864.53;5009680;28;21623;-74
2022/09/25 01:08:02;;;;;;;14.63;13.53;;;;;;;13.21;100.00;99871.44;5011189;28;20402;-74
2022/09/25 01:10:28;;;;;;;15.13;13.90;;;;;;;13.22;100.00;99865.34;5012878;28;20261;-74
2022/09/25 01:12:55;;;;;;;16.20;14.90;;;;;;;13.23;100.00;99864.44;5014706;28;20277;-74
2022/09/25 01:15:33;;;;;;;15.90;14.60;;;;;;;13.25;100.00;99862.66;5018501;28;20203;-74
2022/09/25 01:18:06;;;;;;;14.77;13.50;;;;;;;13.24;100.00;99871.34;5016582;28;20190;-74
2022/09/25 01:20:34;;;;;;;14.37;13.17;;;;;;;13.26;100.00;99871.28;5014098;28;20541;-74
2022/09/25 01:23:29;;;;;;;14.63;13.43;;;;;;;13.27;100.00;99867.81;5016093;28;20229;-74
2022/09/25 01:26:13;;;;;;;14.57;13.47;;;;;;;13.29;100.00;99872.97;5013759;28;20208;-74
2022/09/25 01:28:51;;;;;;;13.93;12.73;;;;;;;13.29;100.00;99862.59;5017229;28;20264;-74
2022/09/25 01:31:38;;;;;;;15.53;14.23;;;;;;;13.30;100.00;99865.13;5016396;28;20552;-73
2022/09/25 01:34:22;;;;;;;14.03;12.87;;;;;;;13.32;100.00;99865.06;5014940;28;20658;-73
2022/09/25 01:36:56;;;;;;;14.30;13.10;;;;;;;13.32;100.00;99863.34;5017468;28;20279;-73
2022/09/25 01:39:34;;;;;;;14.43;13.27;;;;;;;13.33;100.00;99862.47;5016425;28;20189;-74
2022/09/25 01:42:32;;;;;;;13.67;12.57;;;;;;;13.36;100.00;99858.91;5016641;28;20192;-74
2022/09/25 01:45:05;;;;;;;14.93;13.63;;;;;;;13.35;100.00;99859.81;5016475;28;20221;-74
2022/09/25 01:47:36;;;;;;;14.57;13.37;;;;;;;13.35;100.00;99862.41;5018173;28;20215;-74
2022/09/25 01:50:12;;;;;;;15.40;14.10;;;;;;;13.34;100.00;99864.16;5012622;28;20545;-73
2022/09/25 01:52:46;;;;;;;15.53;14.33;;;;;;;13.34;100.00;99863.28;5017818;28;20208;-74
2022/09/25 01:55:14;;;;;;;16.10;14.77;;;;;;;13.33;100.00;99862.47;5015540;28;20205;-73
2022/09/25 01:57:48;;;;;;;14.90;13.73;;;;;;;13.30;100.00;99859.94;5012881;28;20659;-74
2022/09/25 02:00:18;;;;;;;15.80;14.50;;;;;;;13.30;100.00;99849.53;5015302;28;20676;-74
2022/09/25 02:02:56;;;;;;;15.47;14.20;;;;;;;13.30;100.00;99854.75;5033157;28;20184;-74
2022/09/25 02:05:32;;;;;;;15.60;14.30;;;;;;;13.30;100.00;99853.91;5018032;28;20179;-74
2022/09/25 02:08:03;;;;;;;15.80;14.50;;;;;;;13.27;100.00;99858.28;5020369;28;20556;-74
2022/09/25 02:10:59;;;;;;;14.40;13.20;;;;;;;13.27;100.00;99852.22;5024688;28;20813;-74
2022/09/25 02:13:33;;;;;;;13.50;12.37;;;;;;;13.26;100.00;99851.38;5018197;28;20744;-75
2022/09/25 02:16:04;;;;;;;13.37;12.27;;;;;;;13.24;100.00;99850.56;5016901;28;20220;-76
2022/09/25 02:21:38;;;;;;;13.73;12.63;;;;;;;13.22;100.00;99841.94;5019923;28;20226;-74
2022/09/25 02:24:23;;;;;;;14.33;13.23;;;;;;;13.23;100.00;99848.84;5021328;28;20196;-73
2022/09/25 02:26:49;;;;;;;14.10;12.90;;;;;;;13.21;100.00;99848.03;5022828;28;20305;-73
2022/09/25 02:29:16;;;;;;;14.10;13.00;;;;;;;13.21;100.00;99847.19;5024289;28;20761;-73
2022/09/25 02:32:03;;;;;;;13.40;12.27;;;;;;;13.19;100.00;99851.59;5021690;28;20188;-73
2022/09/25 02:34:28;;;;;;;13.40;12.30;;;;;;;13.17;100.00;99851.59;5015451;28;20241;-75
2022/09/25 02:36:54;;;;;;;14.30;13.10;;;;;;;13.18;100.00;99848.13;5014697;28;20229;-74
2022/09/25 02:39:24;;;;;;;13.10;12.10;;;;;;;13.17;100.00;99849.00;5018395;28;20252;-73
2022/09/25 02:42:04;;;;;;;12.40;11.40;;;;;;;13.17;100.00;99840.38;5017186;28;20193;-73
2022/09/25 02:45:07;;;;;;;11.07;10.17;;;;;;;13.16;100.00;99838.66;5015377;28;20669;-74
2022/09/25 02:47:51;;;;;;;10.47;9.67;;;;;;;13.15;100.00;99840.44;5022134;28;20218;-73
2022/09/25 02:50:46;;;;;;;10.00;9.20;;;;;;;13.14;100.00;99845.66;5018192;28;20953;-74
2022/09/25 02:53:24;;;;;;;9.30;8.50;;;;;;;13.14;100.00;99843.06;5000538;28;20230;-73
2022/09/25 02:56:04;;;;;;;9.67;8.87;;;;;;;13.13;100.00;99846.53;5021663;28;20314;-73
2022/09/25 02:58:38;;;;;;;9.67;8.97;;;;;;;13.12;100.00;99848.31;5019677;28;20210;-73
2022/09/25 03:01:07;;;;;;;9.50;8.80;;;;;;;13.11;100.00;99842.22;5017282;28;20224;-74
2022/09/25 03:03:34;;;;;;;9.43;8.73;;;;;;;13.10;100.00;99843.13;5020114;28;20199;-73
2022/09/25 03:06:01;;;;;;;8.87;8.20;;;;;;;13.10;100.00;99843.13;5016106;28;20536;-74
2022/09/25 03:08:37;;;;;;;9.37;8.67;;;;;;;13.11;100.00;99849.19;5021009;28;20278;-74
2022/09/25 03:11:12;;;;;;;8.73;8.03;;;;;;;13.11;100.00;99839.63;5016250;28;20189;-73
2022/09/25 03:13:38;;;;;;;8.57;7.93;;;;;;;13.11;100.00;99837.03;5009484;28;20693;-74
2022/09/25 03:16:09;;;;;;;9.03;8.33;;;;;;;13.13;100.00;99841.34;5014128;28;20239;-75
2022/09/25 03:18:36;;;;;;;8.53;7.83;;;;;;;13.13;100.00;99838.75;5019482;28;20666;-74
2022/09/25 03:21:03;;;;;;;8.63;7.93;;;;;;;13.14;100.00;99846.53;5020734;28;20545;-74
2022/09/25 03:23:28;;;;;;;8.20;7.60;;;;;;;13.14;100.00;99838.72;5023008;28;20186;-74
2022/09/25 03:25:54;;;;;;;8.63;7.93;;;;;;;13.14;100.00;99835.25;5015929;28;20873;-74
2022/09/25 03:28:21;;;;;;;7.77;7.17;;;;;;;13.14;100.00;99837.84;5018233;28;20239;-74
2022/09/25 03:30:57;;;;;;;8.60;7.90;;;;;;;13.14;100.00;99840.44;5024049;28;20193;-74
2022/09/25 03:33:22;;;;;;;7.80;7.20;;;;;;;13.10;100.00;99845.72;5019649;28;20186;-73
2022/09/25 03:35:47;;;;;;;7.20;6.60;;;;;;;13.11;100.00;99846.59;5032723;28;20245;-73
2022/09/25 03:38:13;;;;;;;8.00;7.30;;;;;;;13.10;100.00;99847.47;5049658;28;20173;-72
2022/09/25 03:40:38;;;;;;;8.13;7.53;;;;;;;13.11;100.00;99839.63;5018058;28;20564;-73
2022/09/25 03:43:04;;;;;;;8.03;7.43;;;;;;;13.11;100.00;99839.63;5022349;28;20199;-74
2022/09/25 03:45:29;;;;;;;7.20;6.70;;;;;;;13.11;100.00;99837.03;5016479;28;20190;-74
2022/09/25 03:47:55;;;;;;;7.63;7.03;;;;;;;13.11;100.00;99837.03;5022363;28;20202;-74
2022/09/25 03:50:20;;;;;;;7.83;7.23;;;;;;;13.11;100.00;99841.41;5012123;28;20207;-74
2022/09/25 03:52:46;;;;;;;6.97;6.37;;;;;;;13.11;100.00;99838.78;5023580;28;20202;-74
2022/09/25 03:55:11;;;;;;;6.93;6.43;;;;;;;13.11;100.00;99838.78;5018518;28;20607;-74
2022/09/25 03:57:38;;;;;;;6.77;6.27;;;;;;;13.11;100.00;99846.59;5017492;28;20428;-74
2022/09/25 04:00:04;;;;;;;7.87;6.63;;;;;;;13.12;100.00;99845.69;5015810;28;20181;-74
2022/09/25 04:02:30;;;;;;;7.33;6.73;;;;;;;13.13;100.00;99851.72;5015223;28;20288;-74
2022/09/25 04:04:55;;;;;;;6.87;6.37;;;;;;;13.14;100.00;99845.66;5009543;28;20267;-74
2022/09/25 04:07:22;;;;;;;6.53;6.03;;;;;;;13.15;100.00;99839.56;5007584;28;20592;-74
2022/09/25 04:09:47;;;;;;;6.07;5.67;;;;;;;13.15;100.00;99843.03;5017117;28;20210;-74
2022/09/25 04:12:13;;;;;;;6.77;6.27;;;;;;;13.16;100.00;99844.69;5014237;28;20215;-74
2022/09/25 04:14:40;;;;;;;7.83;7.23;;;;;;;13.17;100.00;99840.38;5021894;28;20225;-73
2022/09/25 04:17:05;;;;;;;7.30;6.70;;;;;;;13.18;100.00;99842.91;5015874;28;20224;-74
2022/09/25 04:19:31;;;;;;;8.30;7.50;;;;;;;13.18;100.00;99847.28;5014825;28;20593;-74
2022/09/25 04:21:56;;;;;;;8.20;7.60;;;;;;;13.17;100.00;99843.81;5019665;28;20185;-74
2022/09/25 04:27:07;;;;;;;7.40;6.87;;;;;;;13.15;100.00;99840.44;5009599;28;20262;-74
2022/09/25 04:29:33;;;;;;;6.80;6.30;;;;;;;13.16;100.00;99839.50;5023038;28;20647;-74
2022/09/25 04:34:42;;;;;;;6.97;6.37;;;;;;;13.11;100.00;99841.41;5013433;28;20634;-74
2022/09/25 04:37:09;;;;;;;8.47;7.77;;;;;;;13.08;100.00;99836.28;5009907;28;20307;-75
2022/09/25 04:39:34;;;;;;;8.53;7.83;;;;;;;13.05;100.00;99834.63;5010865;28;20190;-74
2022/09/25 04:42:00;;;;;;;8.43;7.63;;;;;;;13.03;100.00;99838.13;5016684;28;20248;-74
2022/09/25 04:44:25;;;;;;;8.00;7.30;;;;;;;12.99;100.00;99842.56;5013492;28;20213;-73
2022/09/25 04:46:51;;;;;;;7.43;6.83;;;;;;;12.97;100.00;99839.16;5016392;28;20619;-73
2022/09/25 04:49:16;;;;;;;8.10;7.50;;;;;;;12.95;100.00;99841.78;5015215;28;20202;-74
2022/09/25 04:51:42;;;;;;;7.77;7.17;;;;;;;12.94;100.00;99844.41;5012791;28;20202;-74
2022/09/25 04:54:07;;;;;;;8.20;7.50;;;;;;;12.91;100.00;99845.34;5015867;28;20194;-73
2022/09/25 04:56:32;;;;;;;7.63;7.03;;;;;;;12.90;100.00;99848.84;5016337;28;20300;-74
2022/09/25 04:58:58;;;;;;;7.30;6.80;;;;;;;12.88;100.00;99842.84;5013451;28;20194;-74
2022/09/25 05:01:23;;;;;;;6.73;6.23;;;;;;;12.88;100.00;99848.03;5018130;28;20242;-73
2022/09/25 05:03:52;;;;;;;7.23;6.73;;;;;;;12.87;100.00;99848.91;5016599;28;20196;-74
2022/09/25 05:06:17;;;;;;;7.93;7.33;;;;;;;12.86;100.00;99852.41;5013752;28;20205;-74
2022/09/25 05:08:43;;;;;;;8.70;8.00;;;;;;;12.83;100.00;99847.31;5012042;28;20240;-74
2022/09/25 05:11:08;;;;;;;8.23;7.63;;;;;;;12.82;100.00;99856.00;5026544;28;20186;-75
2022/09/25 05:13:34;;;;;;;8.10;7.40;;;;;;;12.81;100.00;99846.50;5009973;28;20209;-74
2022/09/25 05:15:59;;;;;;;8.00;7.30;;;;;;;12.80;100.00;99855.19;5010083;28;20237;-74
2022/09/25 05:18:25;;;;;;;8.77;8.00;;;;;;;12.79;100.00;99851.72;5020087;28;20203;-74
2022/09/25 05:20:52;;;;;;;8.70;8.00;;;;;;;12.80;100.00;99855.19;5019875;28;20201;-74
2022/09/25 05:23:18;;;;;;;9.00;8.30;;;;;;;12.80;100.00;99847.38;5013950;28;20253;-74
2022/09/25 05:25:50;;;;;;;9.40;8.60;;;;;;;12.80;100.00;99856.00;5010729;28;20202;-74
2022/09/25 05:28:16;;;;;;;9.80;9.00;;;;;;;12.79;100.00;99849.09;5014760;28;20185;-74
2022/09/25 05:30:42;;;;;;;9.10;8.40;;;;;;;12.81;100.00;99852.53;5011023;28;20201;-74
2022/09/25 05:33:07;;;;;;;9.03;8.33;;;;;;;12.82;100.00;99845.59;5024230;28;20225;-74
2022/09/25 05:35:33;;;;;;;9.70;8.90;;;;;;;12.83;100.00;99860.28;5017655;28;20305;-74
2022/09/25 05:37:59;;;;;;;9.30;8.60;;;;;;;12.87;100.00;99850.69;5022343;28;20190;-74
2022/09/25 05:40:24;;;;;;;9.07;8.37;;;;;;;12.89;100.00;99856.69;5023996;28;20195;-74
2022/09/25 05:42:50;;;;;;;8.67;7.97;;;;;;;12.91;100.00;99858.34;5015898;28;20272;-73
2022/09/25 05:45:18;;;;;;;9.10;8.40;;;;;;;12.93;100.00;99851.38;5018234;28;20215;-73
2022/09/25 05:47:43;;;;;;;9.10;8.40;;;;;;;12.96;100.00;99846.09;5023007;28;20273;-74
2022/09/25 05:50:12;;;;;;;8.83;8.13;;;;;;;12.98;100.00;99843.44;5019311;28;20800;-74
2022/09/25 05:52:37;;;;;;;8.83;8.03;;;;;;;13.00;100.00;99846.03;5019153;28;20572;-74
2022/09/25 05:55:05;;;;;;;9.53;8.73;;;;;;;13.03;100.00;99861.50;5016809;28;20211;-74
2022/09/25 05:57:34;;;;;;;8.87;8.17;;;;;;;13.05;100.00;99857.13;5016681;28;20206;-74
2022/09/25 06:00:00;;;;;;;9.10;8.40;;;;;;;13.07;100.00;99864.00;5011925;28;20191;-74
2022/09/25 06:02:26;;;;;;;8.87;8.20;;;;;;;13.09;100.00;99866.56;5023650;28;20297;-74
2022/09/25 06:04:51;;;;;;;8.77;8.07;;;;;;;13.13;100.00;99868.19;5027647;28;20659;-74
2022/09/25 06:07:17;;;;;;;9.70;8.90;;;;;;;13.15;100.00;99866.41;5013012;28;20218;-74
2022/09/25 06:09:42;;;;;;;8.80;8.03;;;;;;;13.16;100.00;99868.09;5023411;28;20177;-74
2022/09/25 06:12:07;;;;;;;8.97;8.27;;;;;;;13.18;100.00;99865.47;5024890;28;20194;-74
2022/09/25 06:14:36;;;;;;;9.47;8.67;;;;;;;13.20;100.00;99869.72;5019301;28;20218;-74
2022/09/25 06:17:02;;;;;;;9.30;8.50;;;;;;;13.23;100.00;99874.00;5017045;28;20310;-74
2022/09/25 06:19:28;;;;;;;9.13;8.23;;;;;;;13.24;100.00;99871.34;5020953;28;20294;-74
2022/09/25 06:21:55;;;;;;;9.23;8.53;;;;;;;13.25;100.00;99872.19;5015108;28;20198;-74
2022/09/25 06:24:20;;;;;;;9.73;8.83;;;;;;;13.26;100.00;99874.75;5018595;28;20190;-75
2022/09/25 06:26:46;;;;;;;9.93;9.13;;;;;;;13.27;100.00;99876.47;5025120;28;20214;-75
2022/09/25 06:29:11;;;;;;;9.47;8.60;;;;;;;13.30;100.00;99877.28;5019595;28;20654;-74
2022/09/25 06:31:38;;;;;;;9.90;9.13;;;;;;;13.31;100.00;99876.41;5015007;28;20191;-74
2022/09/25 06:34:04;;;;;;;9.70;8.90;;;;;;;13.32;100.00;99878.06;5011059;28;20197;-74
2022/09/25 06:36:30;;;;;;;9.27;8.57;;;;;;;13.34;100.00;99881.50;5014832;28;20283;-74
2022/09/25 06:38:55;;;;;;;9.53;8.73;;;;;;;13.36;100.00;99877.09;5019179;28;20206;-75
2022/09/25 06:41:22;;;;;;;9.33;8.53;;;;;;;13.38;100.00;99877.91;5014672;28;20195;-75
2022/09/25 06:43:48;;;;;;;9.43;8.73;;;;;;;13.39;100.00;99882.22;5018527;28;20205;-75
2022/09/25 06:46:14;;;;;;;9.33;8.53;;;;;;;13.43;100.00;99890.81;5016179;28;20195;-75
2022/09/25 06:48:40;;;;;;;11.20;10.30;;;;;;;13.45;100.00;99886.44;5022997;28;20180;-75
2022/09/25 06:51:07;;;;;;;10.07;9.27;;;;;;;13.48;100.00;99878.56;5020651;28;20191;-75
2022/09/25 06:53:33;;;;;;;9.87;9.07;;;;;;;13.51;100.00;99884.50;5019899;28;20176;-75
2022/09/25 06:55:58;;;;;;;9.63;8.83;;;;;;;13.53;100.00;99887.94;5009667;28;20221;-74
2022/09/25 06:58:25;;;;;;;10.50;9.67;;;;;;;13.54;100.00;99893.97;5015341;28;20198;-75
2022/09/25 07:00:53;;;;;;;10.60;9.80;;;;;;;13.55;100.00;99883.53;5019974;28;20931;-75
2022/09/25 07:06:05;;;;;;;10.20;9.43;;;;;;;13.61;100.00;99879.09;5019255;28;20284;-75
2022/09/25 07:08:30;;;;;;;10.93;10.03;;;;;;;13.65;100.00;99880.66;5012550;28;20497;-76
2022/09/25 07:10:57;;;;;;;11.70;10.70;;;;;;;13.68;100.00;99872.78;5026198;28;20207;-76
2022/09/25 07:13:26;;;;;;;12.00;11.00;;;;;;;13.69;100.00;99877.94;5035367;28;20194;-76
2022/09/25 07:16:02;;;;;;;11.37;10.47;;;;;;;13.73;100.00;99876.13;5015258;28;20214;-76
2022/09/25 07:18:29;;;;;;;11.80;10.87;;;;;;;13.79;100.00;99875.09;5014465;28;20190;-76
2022/09/25 07:21:07;;;;;;;13.57;12.37;;;;;;;13.89;100.00;99880.88;5016812;28;20185;-76
2022/09/25 07:23:34;;;;;;;12.63;11.53;;;;;;;13.97;100.00;99882.38;5016661;28;20213;-75
2022/09/25 07:26:21;;;;;;;14.47;13.20;;;;;;;14.07;100.00;99882.09;5020242;28;20619;-76
2022/09/25 07:28:48;;;;;;;14.40;13.20;;;;;;;14.15;100.00;99875.75;5025479;28;20187;-74
2022/09/25 07:31:19;;;;;;;13.50;12.40;;;;;;;14.26;100.00;99880.63;5021668;28;20234;-74
2022/09/25 07:33:45;;;;;;;13.80;12.60;;;;;;;14.35;100.00;99883.84;5022269;28;20195;-74
2022/09/25 07:36:11;;;;;;;18.17;16.57;;;;;;;14.40;100.00;99879.34;5016468;28;20269;-74
2022/09/25 07:38:37;;;;;;;19.27;17.47;;;;;;;14.42;100.00;99878.38;5018544;28;20191;-74
2022/09/25 07:41:07;;;;;;;18.23;16.63;;;;;;;14.40;100.00;99884.56;5013477;28;20184;-74
2022/09/25 07:43:33;;;;;;;17.90;16.30;;;;;;;14.38;100.00;99879.38;5015267;28;20604;-74
2022/09/25 07:45:59;;;;;;;18.30;16.67;;;;;;;14.39;100.00;99883.69;5017022;28;20203;-74
2022/09/25 07:48:26;;;;;;;17.30;15.83;;;;;;;14.39;100.00;99885.44;5009072;28;20190;-74
2022/09/25 07:50:52;;;;;;;16.97;15.57;;;;;;;14.37;100.00;99890.69;5018635;28;20224;-75
2022/09/25 07:53:17;;;;;;;18.90;17.20;;;;;;;14.39;100.00;99888.91;5013123;28;20211;-74
2022/09/25 07:55:46;;;;;;;16.57;15.17;;;;;;;14.46;100.00;99890.41;5017442;28;20311;-74
2022/09/25 07:58:12;;;;;;;15.77;14.47;;;;;;;14.54;100.00;99884.97;5013254;28;20210;-74
2022/09/25 08:00:39;;;;;;;15.60;14.30;;;;;;;14.60;100.00;99887.34;5020641;28;20226;-74
2022/09/25 08:03:05;;;;;;;15.47;14.17;;;;;;;14.67;100.00;99889.78;5012727;28;20667;-73
2022/09/25 08:05:30;;;;;;;15.40;14.20;;;;;;;14.72;100.00;99887.91;5014122;28;20851;-73
2022/09/25 08:07:56;;;;;;;15.57;14.17;;;;;;;14.76;100.00;99885.16;5008420;28;20184;-73
2022/09/25 08:10:22;;;;;;;14.77;13.53;;;;;;;14.77;100.00;99886.88;5016961;28;20266;-74
2022/09/25 08:12:47;;;;;;;14.40;13.20;;;;;;;14.80;100.00;99883.28;5014592;28;20259;-74
2022/09/25 08:15:13;;;;;;;14.43;13.20;;;;;;;14.83;100.00;99878.00;5011042;28;20573;-74
2022/09/25 08:17:39;;;;;;;14.33;13.13;;;;;;;14.91;100.00;99880.34;5019612;28;20573;-74
2022/09/25 08:20:06;;;;;;;14.00;12.87;;;;;;;14.99;100.00;99880.91;5016905;28;20199;-74
2022/09/25 08:22:32;;;;;;;13.47;12.37;;;;;;;15.05;100.00;99874.69;5011877;28;20705;-74
2022/09/25 08:24:59;;;;;;;12.53;11.53;;;;;;;15.06;100.00;99877.22;5015922;28;20191;-74
2022/09/25 08:27:24;;;;;;;12.60;11.50;;;;;;;15.08;100.00;99883.22;5022714;28;20200;-74
2022/09/25 08:29:50;;;;;;;13.63;12.57;;;;;;;15.12;100.00;99886.56;5014972;28;20200;-74
2022/09/25 08:32:15;;;;;;;14.43;13.17;;;;;;;15.14;100.00;99883.91;5011021;28;20199;-76
2022/09/25 08:34:41;;;;;;;13.10;12.00;;;;;;;15.20;100.00;99883.72;5018466;28;20208;-73
2022/09/25 08:37:07;;;;;;;13.03;11.93;;;;;;;15.32;100.00;99885.88;5024636;28;20226;-74
2022/09/25 08:39:33;;;;;;;13.00;11.90;;;;;;;15.43;100.00;99888.13;5014360;28;20263;-75
2022/09/25 08:41:59;;;;;;;12.77;11.67;;;;;;;15.50;100.00;99886.97;5016411;28;20195;-75
2022/09/25 08:44:48;;;;;;;12.83;11.73;;;;;;;15.60;100.00;99884.88;5021482;28;20271;-75
2022/09/25 08:50:12;;;;;;;16.53;15.03;;;;;;;15.79;100.00;99890.31;5024349;28;20718;-75
2022/09/25 08:52:40;;;;;;;16.20;14.70;;;;;;;15.80;100.00;99893.75;5024825;28;20249;-75
2022/09/25 08:55:23;;;;;;;15.43;14.03;;;;;;;15.78;100.00;99891.22;5030408;28;20219;-74
2022/09/25 08:57:54;;;;;;;13.50;12.40;;;;;;;15.74;100.00;99891.34;5016603;28;20215;-75
2022/09/25 09:00:21;;;;;;;13.77;12.60;;;;;;;15.69;100.00;99889.78;5011978;28;20192;-75
2022/09/25 09:02:54;;;;;;;13.80;12.50;;;;;;;15.65;100.00;99890.81;5015361;28;20194;-75
2022/09/25 09:05:33;;;;;;;14.40;13.10;;;;;;;15.63;100.00;99881.34;5017383;28;20279;-75
2022/09/25 09:08:11;;;;;;;14.07;12.77;;;;;;;15.60;100.00;99887.50;5008407;28;20183;-74
2022/09/25 09:10:39;;;;;;;14.27;12.97;;;;;;;15.60;100.00;99881.44;5010757;28;20210;-75
2022/09/25 09:13:41;;;;;;;14.23;13.03;;;;;;;15.60;100.00;99882.28;5012978;28;20184;-75
2022/09/25 09:16:08;;;;;;;14.70;13.40;;;;;;;15.62;100.00;99888.28;5011886;28;20706;-75
2022/09/25 09:18:39;;;;;;;13.23;12.13;;;;;;;15.69;100.00;99887.19;5013698;28;20189;-75
2022/09/25 09:21:35;;;;;;;13.77;12.57;;;;;;;15.82;100.00;99890.16;5009723;28;20214;-75
2022/09/25 09:24:05;;;;;;;13.47;12.27;;;;;;;15.98;100.00;99898.31;5004010;28;20197;-74
2022/09/25 09:26:49;;;;;;;12.13;11.13;;;;;;;16.17;100.00;99897.63;5016709;28;20259;-75
2022/09/25 09:29:27;;;;;;;12.53;11.53;;;;;;;16.37;100.00;99896.84;5008194;28;20181;-74
2022/09/25 09:32:06;;;;;;;13.77;12.57;;;;;;;16.57;100.00;99901.28;5020595;28;20190;-75
2022/09/25 09:35:09;;;;;;;13.27;12.17;;;;;;;16.83;100.00;99890.69;5017928;28;20579;-75
2022/09/25 09:38:01;;;;;;;13.83;12.53;;;;;;;17.12;100.00;99886.03;5010225;28;20221;-76
2022/09/25 09:40:46;;;;;;;13.93;12.67;;;;;;;17.55;100.00;99885.91;5012267;28;20242;-75
2022/09/25 09:43:30;;;;;;;11.43;10.43;;;;;;;17.96;100.00;99875.34;5015838;28;20201;-75
2022/09/25 09:46:07;;;;;;;9.83;9.03;;;;;;;18.40;100.00;99875.03;5012450;28;20210;-74
2022/09/25 09:48:39;;;;;;;9.93;9.03;;;;;;;18.58;100.00;99881.16;5013842;28;20182;-75
2022/09/25 09:51:43;;;;;;;10.03;9.23;;;;;;;18.72;100.00;99877.00;5011313;28;20247;-75
2022/09/25 09:54:22;;;;;;;10.53;9.63;;;;;;;18.83;100.00;99877.28;5015546;28;20196;-75
2022/09/25 09:56:50;;;;;;;9.77;8.87;;;;;;;19.06;100.00;99880.59;5007254;28;20215;-76
2022/09/25 09:59:22;;;;;;;10.40;9.40;;;;;;;19.22;100.00;99875.38;5017918;28;20189;-75
2022/09/25 10:01:58;;;;;;;9.70;8.80;;;;;;;19.29;100.00;99878.53;5006804;28;20187;-73
2022/09/25 10:04:28;;;;;;;9.53;8.73;;;;;;;19.43;100.00;99872.56;5015217;28;20601;-75
2022/09/25 10:07:00;;;;;;;9.87;8.97;;;;;;;19.43;100.00;99867.31;5020266;28;20202;-76
2022/09/25 10:09:26;;;;;;;9.83;9.03;;;;;;;19.33;100.00;99867.81;5019332;28;20585;-75
2022/09/25 10:12:18;;;;;;;11.07;10.07;;;;;;;19.09;100.00;99862.06;5013327;28;20200;-75
2022/09/25 10:14:45;;;;;;;10.33;9.43;;;;;;;18.92;100.00;99860.25;5008498;28;20227;-74
2022/09/25 10:17:11;;;;;;;10.07;9.27;;;;;;;18.84;100.00;99859.81;5012445;28;20565;-74
2022/09/25 10:20:03;;;;;;;10.40;9.50;;;;;;;18.70;100.00;99858.72;5011720;28;20199;-75
2022/09/25 10:22:41;;;;;;;9.60;8.73;;;;;;;18.55;100.00;99855.09;5017614;28;20207;-74
2022/09/25 10:25:07;;;;;;;9.83;9.03;;;;;;;18.43;100.00;99863.53;5019573;28;20179;-75
2022/09/25 10:27:35;;;;;;;9.47;8.60;;;;;;;18.33;100.00;99865.75;5018848;28;20207;-75
2022/09/25 10:30:09;;;;;;;10.57;9.67;;;;;;;18.26;100.00;99867.81;5023336;28;20190;-74
2022/09/25 10:33:01;;;;;;;10.10;9.30;;;;;;;18.28;100.00;99868.59;5020858;28;20183;-75
2022/09/25 10:35:38;;;;;;;9.90;9.00;;;;;;;18.33;100.00;99865.75;5024025;28;20214;-75
2022/09/25 10:38:15;;;;;;;11.10;10.10;;;;;;;18.31;100.00;99859.75;5022908;28;20217;-75
2022/09/25 10:40:45;;;;;;;12.63;11.53;;;;;;;18.28;100.00;99867.78;5024013;28;20179;-75
2022/09/25 10:43:10;;;;;;;11.90;10.90;;;;;;;18.22;100.00;99866.28;5018676;28;20217;-75
2022/09/25 10:45:39;;;;;;;11.40;10.40;;;;;;;18.12;100.00;99865.00;5016490;28;20242;-74
2022/09/25 10:51:11;;;;;;;13.33;12.23;;;;;;;17.97;100.00;99861.34;5017600;28;20271;-76
2022/09/25 10:53:36;;;;;;;13.67;12.53;;;;;;;17.86;100.00;99863.56;5017633;28;20341;-75
2022/09/25 10:56:11;;;;;;;14.63;13.23;;;;;;;17.77;100.00;99867.50;5014605;28;20237;-74
2022/09/25 10:58:55;;;;;;;13.33;12.23;;;;;;;17.62;100.00;99867.25;5018465;28;20736;-75
2022/09/25 11:01:31;;;;;;;12.10;11.17;;;;;;;17.57;100.00;99871.84;5019320;28;20196;-75
2022/09/25 11:03:57;;;;;;;12.80;11.70;;;;;;;17.56;100.00;99870.16;5017022;28;20387;-75
2022/09/25 11:06:25;;;;;;;12.20;11.20;;;;;;;17.60;100.00;99878.69;5015014;28;20191;-75
2022/09/25 11:09:17;;;;;;;11.33;10.33;;;;;;;17.57;100.00;99877.09;5014059;28;20183;-75
2022/09/25 11:11:44;;;;;;;11.73;10.50;;;;;;;17.51;100.00;99877.34;5020649;28;20174;-75
2022/09/25 11:14:34;;;;;;;11.93;10.90;;;;;;;17.47;100.00;99879.25;5019984;28;20184;-75
2022/09/25 11:17:04;;;;;;;12.50;11.40;;;;;;;17.42;100.00;99869.91;5022738;28;20212;-75
2022/09/25 11:19:33;;;;;;;14.50;13.10;;;;;;;17.36;100.00;99876.25;5021245;28;20662;-75
2022/09/25 11:22:36;;;;;;;14.27;12.97;;;;;;;17.25;100.00;99884.56;5014347;28;20187;-75
2022/09/25 11:25:14;;;;;;;13.50;12.30;;;;;;;17.19;100.00;99880.47;4986107;28;20251;-74
2022/09/25 11:27:48;;;;;;;13.37;12.17;;;;;;;17.19;100.00;99874.38;5014439;28;20222;-75
2022/09/25 11:30:19;;;;;;;13.17;11.90;;;;;;;17.20;100.00;99870.84;5018357;28;20198;-75
2022/09/25 11:33:10;;;;;;;15.30;14.00;;;;;;;17.21;100.00;99870.78;5021871;28;20689;-75
2022/09/25 11:35:42;;;;;;;15.40;14.03;;;;;;;17.20;100.00;99871.69;5019427;28;20578;-74
2022/09/25 11:41:30;;;;;;;14.87;13.47;;;;;;;17.10;100.00;99870.38;5018467;28;20539;-75
2022/09/25 11:44:10;;;;;;;16.13;14.60;;;;;;;17.09;100.00;99868.72;5022644;28;20190;-75
2022/09/25 11:47:10;;;;;;;14.33;13.03;;;;;;;17.08;100.00;99866.16;5020895;28;20669;-75
2022/09/25 11:49:38;;;;;;;15.27;13.87;;;;;;;17.09;100.00;99866.09;5025524;28;20317;-75
2022/09/25 11:52:19;;;;;;;16.07;14.67;;;;;;;17.17;100.00;99863.13;5025763;28;20197;-75
2022/09/25 11:55:13;;;;;;;16.43;14.93;;;;;;;17.33;100.00;99860.69;5025794;28;20220;-74